Time;durP1;ratioP1;P1;durP2;ratioP2;P2;SDS_P1;SDS_P2;PMS_P1;PMS_P2;Temp;Humidity;BMP_temperature;BMP_pressure;BME280_temperature;BME280_humidity;BME280_pressure;Samples;Min_cycle;Max_cycle;Signal;HPM_P1;HPM_P2
2022/04/25 00:01:10;;;;;;;4.45;1.80;;;;;;;21.16;35.99;100797.19;5013223;28;20038;-61
2022/04/25 00:03:35;;;;;;;3.28;1.58;;;;;;;21.15;35.98;100797.34;5012616;28;20474;-61
2022/04/25 00:06:01;;;;;;;3.72;1.85;;;;;;;21.13;36.03;100797.50;5013314;28;20112;-61
2022/04/25 00:08:26;;;;;;;3.67;1.90;;;;;;;21.12;35.92;100795.81;5013492;28;20032;-61
2022/04/25 00:10:51;;;;;;;4.35;1.90;;;;;;;21.10;36.10;100791.66;5012487;28;20033;-61
2022/04/25 00:13:16;;;;;;;5.03;1.80;;;;;;;21.11;36.09;100802.09;5013401;28;20113;-61
2022/04/25 00:15:42;;;;;;;3.70;1.65;;;;;;;21.11;36.03;100811.84;5013217;28;20113;-61
2022/04/25 00:18:07;;;;;;;2.75;1.50;;;;;;;21.09;36.08;100804.03;5012103;28;20045;-61
2022/04/25 00:20:33;;;;;;;3.80;1.55;;;;;;;21.10;35.89;100802.25;5013170;28;20539;-61
2022/04/25 00:23:04;;;;;;;2.83;1.63;;;;;;;21.08;36.10;100801.53;5013169;28;20038;-61
2022/04/25 00:25:33;;;;;;;4.40;1.80;;;;;;;21.06;36.24;100808.81;5012737;28;20030;-61
2022/04/25 00:28:00;;;;;;;3.72;1.77;;;;;;;21.04;36.11;100802.81;5012786;28;20087;-61
2022/04/25 00:30:25;;;;;;;3.67;1.80;;;;;;;21.04;35.96;100808.94;5013180;28;20116;-62
2022/04/25 00:32:51;;;;;;;3.15;1.70;;;;;;;21.02;35.94;100802.97;5012063;28;20084;-61
2022/04/25 00:35:17;;;;;;;4.47;1.90;;;;;;;21.02;35.99;100806.44;5013195;28;20033;-62
2022/04/25 00:37:43;;;;;;;3.85;1.80;;;;;;;21.01;36.10;100799.50;5013122;28;20037;-61
2022/04/25 00:40:09;;;;;;;3.40;1.80;;;;;;;21.01;36.20;100806.59;5011893;28;20026;-61
2022/04/25 00:42:34;;;;;;;3.60;2.00;;;;;;;20.99;36.02;100798.78;5013053;28;20057;-61
2022/04/25 00:45:00;;;;;;;3.92;1.85;;;;;;;20.98;36.01;100799.78;5011921;28;20112;-61
2022/04/25 00:47:26;;;;;;;4.65;1.98;;;;;;;20.96;35.88;100799.06;5013150;28;20026;-62
2022/04/25 00:49:52;;;;;;;3.42;1.60;;;;;;;20.97;36.10;100799.94;5012822;28;20022;-62
2022/04/25 00:52:17;;;;;;;3.33;1.70;;;;;;;20.95;35.98;100805.38;5012149;28;20359;-61
2022/04/25 00:54:43;;;;;;;4.38;2.00;;;;;;;20.93;36.04;100795.88;5012764;28;20021;-61
2022/04/25 00:57:09;;;;;;;4.30;2.00;;;;;;;20.91;36.20;100796.03;5012562;28;20034;-61
2022/04/25 00:59:35;;;;;;;4.97;1.92;;;;;;;20.88;36.07;100796.31;5011964;28;20022;-61
2022/04/25 01:02:00;;;;;;;3.95;1.90;;;;;;;20.87;36.20;100794.66;5012551;28;20520;-61
2022/04/25 01:04:26;;;;;;;4.00;1.63;;;;;;;20.87;36.01;100792.00;5012914;28;20060;-61
2022/04/25 01:06:51;;;;;;;3.72;1.80;;;;;;;20.86;35.92;100798.28;5011707;28;20601;-61
2022/04/25 01:09:17;;;;;;;3.92;1.92;;;;;;;20.86;36.15;100800.94;5012712;28;20053;-61
2022/04/25 01:11:42;;;;;;;4.25;2.03;;;;;;;20.87;35.89;100796.44;5012753;28;20417;-61
2022/04/25 01:14:15;;;;;;;3.93;1.90;;;;;;;20.86;35.92;100798.28;5011506;28;20448;-61
2022/04/25 01:16:41;;;;;;;4.20;2.00;;;;;;;20.84;35.89;100797.59;5013108;28;20320;-61
2022/04/25 01:19:06;;;;;;;4.60;2.00;;;;;;;20.85;35.83;100799.25;5012118;28;20431;-61
2022/04/25 01:21:38;;;;;;;4.43;1.90;;;;;;;20.83;35.92;100802.03;5011984;28;20022;-61
2022/04/25 01:29:37;;;;;;;3.42;1.92;;;;;;;20.79;36.09;100789.22;5016412;28;20036;-61
2022/04/25 01:32:03;;;;;;;3.28;1.75;;;;;;;20.79;35.98;100792.72;5015899;28;20109;-62
2022/04/25 01:34:30;;;;;;;3.50;1.80;;;;;;;20.77;35.84;100805.25;5015337;28;20053;-62
2022/04/25 01:36:56;;;;;;;4.00;1.98;;;;;;;20.75;35.99;100799.28;5015906;28;20026;-61
2022/04/25 01:39:21;;;;;;;3.33;1.90;;;;;;;20.76;35.98;100800.94;5016388;28;20030;-61
2022/04/25 01:41:46;;;;;;;4.20;1.97;;;;;;;20.75;35.83;100803.75;5015504;28;20037;-61
2022/04/25 01:44:12;;;;;;;3.50;2.00;;;;;;;20.75;36.00;100801.09;5016283;28;20037;-61
2022/04/25 01:46:39;;;;;;;4.28;1.90;;;;;;;20.73;35.99;100803.03;5016149;28;20026;-62
2022/04/25 01:49:04;;;;;;;3.72;2.00;;;;;;;20.69;36.07;100797.19;5015023;28;20124;-62
2022/04/25 01:51:31;;;;;;;3.72;1.80;;;;;;;20.69;36.05;100799.00;5015885;28;20077;-62
2022/04/25 01:53:56;;;;;;;3.60;1.85;;;;;;;20.69;36.16;100793.72;5015779;28;20099;-62
2022/04/25 01:56:21;;;;;;;4.83;2.00;;;;;;;20.69;35.97;100804.31;5015059;28;20537;-62
2022/04/25 01:58:49;;;;;;;3.60;1.88;;;;;;;20.68;36.22;100808.78;5015808;28;20022;-62
2022/04/25 02:01:18;;;;;;;3.33;1.70;;;;;;;20.68;35.85;100795.53;5015950;28;20030;-62
2022/04/25 02:03:43;;;;;;;3.42;1.98;;;;;;;20.66;36.11;100797.47;5015031;28;20035;-62
2022/04/25 02:06:09;;;;;;;4.60;2.03;;;;;;;20.65;36.06;100801.94;5015392;28;20026;-61
2022/04/25 02:08:34;;;;;;;3.97;2.10;;;;;;;20.64;35.87;100808.22;5015847;28;20462;-61
2022/04/25 02:13:43;;;;;;;3.72;1.88;;;;;;;20.63;36.10;100800.38;5015740;28;20338;-61
2022/04/25 02:16:11;;;;;;;4.23;2.20;;;;;;;20.64;35.87;100797.63;5016002;28;20038;-61
2022/04/25 02:18:39;;;;;;;4.78;2.25;;;;;;;20.63;35.96;100800.38;5016615;28;20789;-61
2022/04/25 02:21:05;;;;;;;5.13;2.00;;;;;;;20.62;35.91;100791.59;5017767;28;20092;-62
2022/04/25 02:23:30;;;;;;;3.67;2.03;;;;;;;20.60;35.85;100798.88;5016580;28;20030;-61
2022/04/25 02:25:58;;;;;;;5.07;2.22;;;;;;;20.60;35.96;100801.50;5015426;28;20378;-60
2022/04/25 02:28:23;;;;;;;3.72;1.77;;;;;;;20.58;35.90;100798.16;5015633;28;20037;-60
2022/04/25 02:30:51;;;;;;;3.55;1.98;;;;;;;20.58;35.89;100797.31;5014203;28;20041;-61
2022/04/25 02:33:16;;;;;;;4.15;2.05;;;;;;;20.55;36.14;100798.44;5015197;28;20092;-61
2022/04/25 02:35:42;;;;;;;4.03;2.00;;;;;;;20.55;36.02;100797.59;5014149;28;20377;-61
2022/04/25 02:38:07;;;;;;;4.63;2.20;;;;;;;20.55;36.30;100798.44;5014051;28;20030;-61
2022/04/25 02:40:32;;;;;;;4.43;2.20;;;;;;;20.55;35.95;100795.78;5015190;28;20021;-61
2022/04/25 02:42:57;;;;;;;5.13;2.20;;;;;;;20.54;35.98;100799.44;5014664;28;20033;-61
2022/04/25 02:45:22;;;;;;;4.30;2.17;;;;;;;20.54;35.95;100798.59;5014060;28;20052;-61
2022/04/25 02:47:48;;;;;;;3.75;1.92;;;;;;;20.52;36.11;100796.09;5014834;28;20109;-61
2022/04/25 02:50:13;;;;;;;3.45;1.90;;;;;;;20.51;35.98;100793.59;5015168;28;20347;-60
2022/04/25 02:52:38;;;;;;;4.78;2.28;;;;;;;20.50;36.09;100797.19;5014013;28;20105;-61
2022/04/25 02:55:04;;;;;;;4.60;2.03;;;;;;;20.48;36.22;100794.69;5014663;28;20070;-61
2022/04/25 02:57:30;;;;;;;5.82;2.13;;;;;;;20.48;36.12;100797.34;5014564;28;20057;-61
2022/04/25 02:59:55;;;;;;;4.00;2.13;;;;;;;20.46;36.14;100794.84;5013641;28;20034;-61
2022/04/25 03:02:20;;;;;;;5.05;2.03;;;;;;;20.45;36.08;100789.69;5014635;28;20138;-60
2022/04/25 03:04:45;;;;;;;4.80;2.10;;;;;;;20.44;36.18;100799.44;5014601;28;20057;-61
2022/04/25 03:07:10;;;;;;;4.43;2.20;;;;;;;20.44;35.94;100795.94;5013642;28;20396;-62
2022/04/25 03:09:36;;;;;;;5.07;2.27;;;;;;;20.43;35.90;100796.94;5014694;28;20268;-60
2022/04/25 03:12:01;;;;;;;4.13;2.00;;;;;;;20.43;36.08;100796.94;5014262;28;20401;-60
2022/04/25 03:14:26;;;;;;;3.53;1.83;;;;;;;20.42;36.20;100796.06;5013636;28;20295;-61
2022/04/25 03:16:52;;;;;;;3.55;2.10;;;;;;;20.42;36.10;100795.25;5013998;28;20104;-61
2022/04/25 03:19:18;;;;;;;5.72;2.17;;;;;;;20.43;36.21;100799.59;5014033;28;20486;-61
2022/04/25 03:21:43;;;;;;;4.03;2.10;;;;;;;20.41;35.97;100793.56;5013696;28;20037;-61
2022/04/25 03:24:08;;;;;;;4.45;2.20;;;;;;;20.39;35.71;100796.38;5014110;28;20070;-61
2022/04/25 03:26:34;;;;;;;4.85;2.15;;;;;;;20.39;35.89;100795.53;5013704;28;20054;-63
2022/04/25 03:28:59;;;;;;;3.20;1.80;;;;;;;20.39;36.05;100800.81;5013530;28;20033;-61
2022/04/25 03:31:24;;;;;;;4.60;2.10;;;;;;;20.40;36.01;100802.50;5014078;28;20060;-61
2022/04/25 03:33:49;;;;;;;3.50;2.10;;;;;;;20.39;35.87;100801.66;5013042;28;20034;-60
2022/04/25 03:36:15;;;;;;;3.63;2.00;;;;;;;20.38;35.72;100796.53;5014149;28;20775;-61
2022/04/25 03:38:42;;;;;;;3.83;2.10;;;;;;;20.36;35.89;100801.97;5014035;28;20271;-62
2022/04/25 03:41:07;;;;;;;4.05;2.40;;;;;;;20.33;35.95;100802.25;5012966;28;20021;-62
2022/04/25 03:43:34;;;;;;;3.70;1.95;;;;;;;20.33;36.07;100798.75;5013965;28;20033;-62
2022/04/25 03:46:00;;;;;;;4.13;2.13;;;;;;;20.33;35.89;100798.75;5013626;28;20032;-60
2022/04/25 03:48:25;;;;;;;3.78;1.90;;;;;;;20.31;35.95;100801.53;5012751;28;20036;-61
2022/04/25 03:50:50;;;;;;;3.85;1.80;;;;;;;20.30;35.87;100807.81;5013720;28;20105;-60
2022/04/25 03:53:16;;;;;;;4.57;2.23;;;;;;;20.29;35.90;100814.91;5013970;28;20030;-61
2022/04/25 03:58:27;;;;;;;3.77;2.10;;;;;;;20.27;35.95;100814.22;5013811;28;20388;-61
2022/04/25 04:00:53;;;;;;;4.25;2.10;;;;;;;20.25;35.68;100813.53;5013125;28;20018;-60
2022/04/25 04:03:19;;;;;;;4.43;2.25;;;;;;;20.25;35.91;100810.88;5012816;28;20072;-60
2022/04/25 04:05:48;;;;;;;4.30;2.08;;;;;;;20.25;36.00;100815.31;5013712;28;20026;-60
2022/04/25 04:08:14;;;;;;;5.25;2.22;;;;;;;20.23;36.04;100812.81;5013502;28;20080;-60
2022/04/25 04:10:40;;;;;;;4.32;2.15;;;;;;;20.23;35.97;100811.97;5012818;28;20026;-61
2022/04/25 04:13:06;;;;;;;5.80;2.42;;;;;;;20.23;35.92;100818.09;5013131;28;20029;-61
2022/04/25 04:15:31;;;;;;;4.80;2.05;;;;;;;20.23;35.91;100823.38;5013162;28;20034;-61
2022/04/25 04:17:57;;;;;;;4.53;2.30;;;;;;;20.21;36.14;100820.06;5012082;28;20038;-61
2022/04/25 04:20:22;;;;;;;5.00;2.30;;;;;;;20.22;35.84;100820.88;5013400;28;20096;-61
2022/04/25 04:22:48;;;;;;;4.68;2.13;;;;;;;20.22;35.98;100824.38;5013214;28;20377;-60
2022/04/25 04:25:14;;;;;;;4.45;2.10;;;;;;;20.21;36.03;100822.69;5012738;28;20061;-60
2022/04/25 04:27:43;;;;;;;4.10;2.00;;;;;;;20.20;35.70;100822.84;5013081;28;20018;-61
2022/04/25 04:30:11;;;;;;;4.15;2.10;;;;;;;20.19;36.07;100823.84;5011990;28;20034;-61
2022/04/25 04:32:50;;;;;;;5.18;2.60;;;;;;;20.17;35.94;100823.97;5013147;28;20409;-60
2022/04/25 04:38:05;;;;;;;5.15;2.38;;;;;;;20.16;35.94;100832.03;5011871;28;20037;-61
2022/04/25 04:40:31;;;;;;;3.92;2.22;;;;;;;20.13;35.97;100829.69;5013305;28;20065;-61
2022/04/25 04:42:57;;;;;;;4.60;2.55;;;;;;;20.15;35.92;100840.94;5012879;28;20030;-60
2022/04/25 04:45:23;;;;;;;3.70;1.90;;;;;;;20.13;36.00;100835.78;5012356;28;20025;-60
2022/04/25 04:47:49;;;;;;;3.60;2.03;;;;;;;20.13;35.75;100835.78;5012761;28;20045;-60
2022/04/25 04:50:15;;;;;;;4.05;2.20;;;;;;;20.13;35.91;100842.91;5012948;28;20044;-61
2022/04/25 04:52:59;;;;;;;4.20;2.30;;;;;;;20.13;36.20;100837.63;5012015;28;20026;-61
2022/04/25 04:55:25;;;;;;;4.75;2.17;;;;;;;20.10;36.03;100834.25;5012945;28;20042;-61
2022/04/25 04:57:52;;;;;;;6.75;2.42;;;;;;;20.11;35.96;100843.03;5012712;28;20048;-62
2022/04/25 05:00:17;;;;;;;4.82;2.15;;;;;;;20.10;36.02;100850.13;5015687;28;20032;-60
2022/04/25 05:02:44;;;;;;;4.55;2.28;;;;;;;20.09;36.12;100851.13;5016900;28;20464;-61
2022/04/25 05:05:11;;;;;;;4.82;2.50;;;;;;;20.09;36.05;100855.53;5015757;28;20030;-61
2022/04/25 05:07:39;;;;;;;3.80;2.30;;;;;;;20.08;35.97;100856.53;5016717;28;20030;-60
2022/04/25 05:10:10;;;;;;;4.65;2.50;;;;;;;20.07;35.92;100868.09;5016641;28;20033;-62
2022/04/25 05:12:52;;;;;;;5.45;2.20;;;;;;;20.06;35.93;100871.69;5016115;28;20109;-62
2022/04/25 05:15:18;;;;;;;4.50;2.38;;;;;;;20.05;35.96;100870.88;5016567;28;20092;-62
2022/04/25 05:17:48;;;;;;;4.68;2.30;;;;;;;20.05;36.14;100868.22;5016283;28;20092;-61
2022/04/25 05:20:14;;;;;;;4.45;2.30;;;;;;;20.06;35.88;100869.03;5016056;28;20033;-62
2022/04/25 05:22:44;;;;;;;4.28;2.30;;;;;;;20.05;35.99;100870.88;5016606;28;20029;-62
2022/04/25 05:25:17;;;;;;;6.43;2.63;;;;;;;20.04;36.20;100874.47;5016176;28;20030;-61
2022/04/25 05:27:46;;;;;;;4.15;2.17;;;;;;;20.04;36.37;100874.47;5015754;28;20034;-62
2022/04/25 05:30:13;;;;;;;4.97;2.42;;;;;;;20.05;36.51;100875.34;5015912;28;20026;-62
2022/04/25 05:32:55;;;;;;;4.32;1.90;;;;;;;20.07;36.71;100876.03;5016621;28;20024;-62
2022/04/25 05:35:27;;;;;;;4.38;2.25;;;;;;;20.08;37.10;100875.88;5015635;28;20105;-62
2022/04/25 05:37:53;;;;;;;5.03;2.15;;;;;;;20.11;37.09;100888.00;5016157;28;20033;-62
2022/04/25 05:40:19;;;;;;;4.28;2.00;;;;;;;20.14;37.21;100892.19;5015504;28;20025;-62
2022/04/25 05:42:45;;;;;;;3.47;2.00;;;;;;;20.19;37.00;100888.16;5016286;28;20044;-62
2022/04/25 05:45:13;;;;;;;4.57;2.28;;;;;;;20.20;37.16;100892.50;5015883;28;20022;-62
2022/04/25 05:47:39;;;;;;;4.30;1.80;;;;;;;20.23;37.22;100902.78;5015726;28;20033;-62
2022/04/25 05:52:50;;;;;;;3.55;1.80;;;;;;;20.27;37.34;100898.06;5015752;28;20101;-62
2022/04/25 05:55:16;;;;;;;3.72;1.83;;;;;;;20.31;37.48;100904.75;5015259;28;20109;-62
2022/04/25 05:57:41;;;;;;;3.30;1.77;;;;;;;20.33;37.41;100905.47;5015900;28;20022;-62
2022/04/25 06:00:09;;;;;;;3.88;1.75;;;;;;;20.37;37.48;100909.50;5015818;28;20026;-62
2022/04/25 06:02:39;;;;;;;3.80;1.85;;;;;;;20.39;37.49;100912.81;5015298;28;20026;-62
2022/04/25 06:05:05;;;;;;;3.60;1.70;;;;;;;20.41;37.25;100910.91;5015441;28;20116;-62
2022/04/25 06:07:32;;;;;;;4.35;1.98;;;;;;;20.44;37.25;100912.41;5015619;28;20029;-62
2022/04/25 06:09:57;;;;;;;4.68;2.00;;;;;;;20.45;37.40;100922.03;5014321;28;20052;-62
2022/04/25 06:12:23;;;;;;;2.75;1.65;;;;;;;20.47;37.32;100917.44;5015539;28;20042;-61
2022/04/25 06:14:48;;;;;;;5.60;2.00;;;;;;;20.50;37.10;100918.97;5015314;28;20036;-61
2022/04/25 06:17:15;;;;;;;4.22;2.20;;;;;;;20.53;37.37;100926.66;5014735;28;20279;-61
2022/04/25 06:19:41;;;;;;;3.80;1.90;;;;;;;20.54;37.21;100929.16;5015287;28;20037;-61
2022/04/25 06:22:09;;;;;;;3.70;1.70;;;;;;;20.56;37.26;100929.03;5015192;28;20021;-60
2022/04/25 06:24:35;;;;;;;4.68;2.28;;;;;;;20.58;36.34;100935.81;5014620;28;20025;-60
2022/04/25 06:27:02;;;;;;;3.75;2.20;;;;;;;20.62;35.93;100931.13;5015162;28;20022;-62
2022/04/25 06:29:29;;;;;;;5.88;2.22;;;;;;;20.66;36.35;100937.81;5014726;28;20488;-63
2022/04/25 06:31:54;;;;;;;4.57;2.30;;;;;;;20.69;36.36;100937.53;5014773;28;20083;-60
2022/04/25 06:34:24;;;;;;;4.00;2.00;;;;;;;20.74;36.43;100940.59;5015108;28;20057;-63
2022/04/25 06:36:50;;;;;;;4.32;2.00;;;;;;;20.75;36.54;100934.34;5013865;28;20413;-63
2022/04/25 06:39:18;;;;;;;3.78;2.15;;;;;;;20.78;36.36;100930.59;5015129;28;20029;-62
2022/04/25 06:41:43;;;;;;;4.47;1.95;;;;;;;20.79;36.40;100929.59;5015238;28;20048;-61
2022/04/25 06:44:09;;;;;;;5.17;2.27;;;;;;;20.81;36.56;100939.09;5014235;28;20486;-61
2022/04/25 06:46:36;;;;;;;4.17;2.23;;;;;;;20.82;36.51;100926.66;5014960;28;20263;-60
2022/04/25 06:49:20;;;;;;;4.80;1.98;;;;;;;20.82;36.57;100937.25;5014676;28;20311;-60
2022/04/25 06:51:49;;;;;;;3.72;1.80;;;;;;;20.78;36.89;100939.34;5013993;28;20469;-62
2022/04/25 06:54:14;;;;;;;4.07;1.90;;;;;;;20.77;36.94;100932.38;5014766;28;20198;-62
2022/04/25 06:56:41;;;;;;;4.60;1.95;;;;;;;20.78;37.16;100939.34;5014817;28;20057;-60
2022/04/25 06:59:06;;;;;;;4.95;1.98;;;;;;;20.81;37.12;100938.25;5013866;28;20434;-60
2022/04/25 07:01:32;;;;;;;5.50;2.22;;;;;;;20.82;37.15;100943.41;5014805;28;20053;-59
2022/04/25 07:03:58;;;;;;;3.67;1.90;;;;;;;20.82;37.16;100948.72;5014588;28;20021;-60
2022/04/25 07:06:23;;;;;;;5.78;2.20;;;;;;;20.83;37.03;100947.72;5014345;28;20056;-60
2022/04/25 07:08:49;;;;;;;4.03;2.07;;;;;;;20.87;37.06;100943.00;5014601;28;20018;-63
2022/04/25 07:11:17;;;;;;;4.55;1.90;;;;;;;20.88;36.95;100943.81;5014904;28;20281;-63
2022/04/25 07:13:44;;;;;;;4.25;2.15;;;;;;;20.90;36.98;100947.16;5013721;28;20046;-62
2022/04/25 07:16:12;;;;;;;5.03;2.17;;;;;;;20.92;36.86;100953.16;5014220;28;20022;-61
2022/04/25 07:18:38;;;;;;;4.20;2.20;;;;;;;20.95;36.85;100955.50;5013994;28;20117;-62
2022/04/25 07:29:22;;;;;;;5.55;2.58;;;;;;;21.03;37.09;100955.66;5021428;28;20402;-62
2022/04/25 07:31:47;;;;;;;4.55;2.53;;;;;;;21.10;37.03;100958.59;5014759;28;20022;-63
2022/04/25 07:34:13;;;;;;;5.38;2.70;;;;;;;21.18;36.88;100958.72;5013675;28;20184;-64
2022/04/25 07:36:38;;;;;;;5.37;2.67;;;;;;;21.25;36.79;100961.63;5014572;28;20036;-68
2022/04/25 07:39:04;;;;;;;4.50;2.37;;;;;;;21.30;36.80;100956.72;5013777;28;20325;-65
2022/04/25 07:41:29;;;;;;;5.03;3.00;;;;;;;21.35;36.56;100960.63;5013664;28;20766;-63
2022/04/25 07:43:54;;;;;;;4.30;2.53;;;;;;;21.34;36.81;100964.25;5013917;28;20045;-63
2022/04/25 07:46:23;;;;;;;5.53;2.73;;;;;;;21.32;36.61;100965.38;5014105;28;20461;-63
2022/04/25 07:48:48;;;;;;;5.75;2.65;;;;;;;21.30;36.80;100967.31;5013020;28;20267;-63
2022/04/25 07:51:14;;;;;;;5.40;2.88;;;;;;;21.31;36.89;100969.00;5014100;28;20026;-63
2022/04/25 07:53:45;;;;;;;4.43;2.92;;;;;;;21.32;36.91;100971.50;5013715;28;20034;-61
2022/04/25 07:56:10;;;;;;;5.25;2.63;;;;;;;21.35;36.95;100976.53;5012726;28;20041;-63
2022/04/25 07:58:41;;;;;;;5.47;2.75;;;;;;;21.37;36.89;100974.56;5013848;28;20022;-61
2022/04/25 08:01:06;;;;;;;5.18;2.60;;;;;;;21.38;36.98;100983.38;5012880;28;20022;-62
2022/04/25 08:03:34;;;;;;;4.75;2.63;;;;;;;21.39;36.81;100979.72;5013726;28;20052;-66
2022/04/25 08:05:59;;;;;;;6.82;2.90;;;;;;;21.42;36.81;100990.03;5013491;28;20034;-63
2022/04/25 08:08:25;;;;;;;4.90;2.67;;;;;;;21.43;36.53;100982.91;5012770;28;20022;-65
2022/04/25 08:10:50;;;;;;;4.47;2.70;;;;;;;21.45;36.78;100987.13;5013016;28;20516;-62
2022/04/25 08:18:43;;;;;;;6.22;2.60;;;;;;;21.45;36.88;100992.41;5013273;28;20049;-63
2022/04/25 08:21:08;;;;;;;4.33;2.57;;;;;;;21.47;36.71;101008.19;5013117;28;20041;-64
2022/04/25 08:23:33;;;;;;;4.82;2.88;;;;;;;21.45;37.00;100997.72;5013476;28;20283;-63
2022/04/25 08:25:59;;;;;;;5.90;3.10;;;;;;;21.43;37.02;101006.78;5013189;28;20045;-63
2022/04/25 08:28:25;;;;;;;4.65;2.58;;;;;;;21.42;37.09;101010.44;5014550;28;20033;-62
2022/04/25 08:30:52;;;;;;;5.35;3.13;;;;;;;21.38;37.08;101005.41;5012168;28;20461;-64
2022/04/25 08:33:18;;;;;;;5.38;3.28;;;;;;;21.40;37.13;101013.22;5013334;28;20026;-65
2022/04/25 08:35:43;;;;;;;4.75;2.60;;;;;;;21.42;37.20;101015.72;5014705;28;20363;-66
2022/04/25 08:38:08;;;;;;;4.40;2.63;;;;;;;21.42;37.16;101019.22;5012192;28;20037;-61
2022/04/25 08:40:34;;;;;;;5.60;2.40;;;;;;;21.43;37.12;101020.03;5013054;28;20029;-60
2022/04/25 08:43:03;;;;;;;4.32;2.70;;;;;;;21.44;37.15;101025.19;5012937;28;20021;-62
2022/04/25 08:45:30;;;;;;;4.65;2.92;;;;;;;21.44;37.31;101032.31;5013269;28;20033;-64
2022/04/25 08:47:58;;;;;;;4.72;2.70;;;;;;;21.42;37.27;101034.28;5013031;28;20025;-64
2022/04/25 08:50:24;;;;;;;5.10;2.85;;;;;;;21.40;37.28;101034.44;5012581;28;20018;-64
2022/04/25 08:52:54;;;;;;;4.70;3.03;;;;;;;21.40;37.44;101034.44;5012771;28;20050;-64
2022/04/25 08:55:20;;;;;;;6.75;3.05;;;;;;;21.44;37.26;101034.97;5013048;28;20108;-63
2022/04/25 08:57:48;;;;;;;5.05;2.78;;;;;;;21.45;37.24;101037.50;5012137;28;20026;-63
2022/04/25 09:00:15;;;;;;;5.70;2.80;;;;;;;21.46;37.47;101043.63;5012842;28;20061;-62
2022/04/25 09:02:41;;;;;;;4.72;2.60;;;;;;;21.45;37.59;101047.28;5012764;28;20034;-64
2022/04/25 09:05:11;;;;;;;4.40;2.75;;;;;;;21.44;37.58;101054.38;5012238;28;20038;-63
2022/04/25 09:07:37;;;;;;;5.70;2.70;;;;;;;21.42;37.62;101048.38;5013095;28;20108;-65
2022/04/25 09:10:08;;;;;;;5.82;2.90;;;;;;;21.38;37.53;101047.81;5012777;28;20022;-65
2022/04/25 09:12:33;;;;;;;5.28;2.90;;;;;;;21.37;37.65;101058.56;5011978;28;20026;-66
2022/04/25 09:15:02;;;;;;;5.63;2.33;;;;;;;21.40;37.23;101060.94;5012151;28;20112;-65
2022/04/25 09:17:28;;;;;;;5.90;3.08;;;;;;;21.42;37.41;101066.09;5012346;28;20477;-64
2022/04/25 09:19:53;;;;;;;6.70;3.60;;;;;;;21.41;37.09;101062.59;5011537;28;20030;-63
2022/04/25 09:22:32;;;;;;;4.60;2.80;;;;;;;21.40;37.36;101063.59;5012724;28;20034;-62
2022/04/25 09:25:17;;;;;;;4.28;2.92;;;;;;;21.39;37.38;101067.22;5012473;28;20301;-63
2022/04/25 09:27:43;;;;;;;4.43;2.53;;;;;;;21.38;37.32;101068.22;5012459;28;20022;-63
2022/04/25 09:30:18;;;;;;;5.85;2.60;;;;;;;21.37;37.24;101067.34;5012403;28;20370;-63
2022/04/25 09:32:50;;;;;;;7.78;3.45;;;;;;;21.34;37.12;101064.97;5011924;28;20121;-62
2022/04/25 09:35:38;;;;;;;4.88;2.78;;;;;;;21.33;37.30;101071.28;5012442;28;20477;-62
2022/04/25 09:38:04;;;;;;;5.47;2.60;;;;;;;21.33;37.27;101067.78;5012162;28;20022;-61
2022/04/25 09:40:33;;;;;;;4.68;2.90;;;;;;;21.30;37.15;101066.25;5011738;28;20041;-62
2022/04/25 09:43:08;;;;;;;4.63;2.50;;;;;;;21.28;37.08;101070.84;5012060;28;20478;-61
2022/04/25 09:45:37;;;;;;;4.63;2.85;;;;;;;21.27;37.41;101073.63;5014265;28;20481;-61
2022/04/25 09:48:23;;;;;;;5.63;3.00;;;;;;;21.23;37.55;101065.13;5015031;28;20026;-63
2022/04/25 09:51:07;;;;;;;5.30;3.05;;;;;;;21.20;37.58;101073.34;5015825;28;20030;-63
2022/04/25 09:53:50;;;;;;;4.78;2.85;;;;;;;21.19;37.75;101077.00;5015355;28;20022;-63
2022/04/25 09:56:17;;;;;;;5.25;2.70;;;;;;;21.18;37.77;101076.16;5015985;28;20033;-64
2022/04/25 09:59:05;;;;;;;4.80;2.90;;;;;;;21.18;37.74;101077.97;5015940;28;20022;-63
2022/04/25 10:01:34;;;;;;;5.57;2.65;;;;;;;21.17;37.68;101079.78;5015320;28;20096;-62
2022/04/25 10:04:04;;;;;;;4.45;2.97;;;;;;;21.19;37.59;101087.59;5015549;28;20036;-62
2022/04/25 10:06:34;;;;;;;5.03;3.13;;;;;;;21.19;37.66;101087.59;5015837;28;20111;-62
2022/04/25 10:09:06;;;;;;;4.32;2.60;;;;;;;21.20;37.71;101091.91;5014734;28;20092;-62
2022/04/25 10:11:39;;;;;;;5.43;2.75;;;;;;;21.21;37.56;101093.59;5015493;28;20021;-62
2022/04/25 10:14:04;;;;;;;5.13;3.00;;;;;;;21.22;37.54;101097.06;5015158;28;20481;-65
2022/04/25 10:16:31;;;;;;;4.35;2.60;;;;;;;21.22;37.48;101099.72;5014899;28;20311;-62
2022/04/25 10:18:57;;;;;;;4.95;2.75;;;;;;;21.19;37.63;101101.69;5015014;28;20053;-63
2022/04/25 10:21:29;;;;;;;4.70;3.00;;;;;;;21.20;37.58;101098.06;5015296;28;20519;-63
2022/04/25 10:23:55;;;;;;;4.68;2.90;;;;;;;21.22;37.55;101097.06;5014441;28;20029;-63
2022/04/25 10:26:26;;;;;;;4.72;2.83;;;;;;;21.19;37.73;101096.38;5015400;28;20030;-67
2022/04/25 10:28:55;;;;;;;4.10;2.70;;;;;;;21.18;37.61;101107.94;5014293;28;20105;-65
2022/04/25 10:31:26;;;;;;;4.57;2.67;;;;;;;21.18;37.70;101104.47;5015438;28;20037;-65
2022/04/25 10:33:54;;;;;;;4.90;2.78;;;;;;;21.18;37.92;101110.59;5014857;28;20029;-66
2022/04/25 10:36:38;;;;;;;4.80;2.75;;;;;;;21.19;37.66;101116.75;5014453;28;20026;-63
2022/04/25 10:39:23;;;;;;;5.03;2.70;;;;;;;21.17;37.91;101119.53;5015033;28;20381;-63
2022/04/25 10:44:40;;;;;;;4.45;2.60;;;;;;;21.16;38.05;101127.63;5014523;28;20052;-63
2022/04/25 10:47:05;;;;;;;4.32;2.70;;;;;;;21.15;38.01;101125.94;5014679;28;20505;-62
2022/04/25 10:49:55;;;;;;;3.77;2.43;;;;;;;21.13;38.35;101131.38;5014885;28;20034;-63
2022/04/25 10:55:21;;;;;;;4.47;2.47;;;;;;;21.14;38.41;101133.06;5014625;28;20042;-64
2022/04/25 10:58:05;;;;;;;4.43;2.63;;;;;;;21.18;38.60;101133.63;5013393;28;20069;-64
2022/04/25 11:00:36;;;;;;;4.05;2.55;;;;;;;21.20;38.57;101129.00;5014856;28;20029;-62
2022/04/25 11:03:08;;;;;;;4.88;2.65;;;;;;;21.23;38.62;101134.03;5014163;28;20386;-61
2022/04/25 11:05:38;;;;;;;4.35;2.50;;;;;;;21.25;38.56;101133.91;5013715;28;20397;-62
2022/04/25 11:08:16;;;;;;;6.53;3.20;;;;;;;21.26;38.55;101130.28;5014353;28;20500;-61
2022/04/25 11:10:45;;;;;;;4.40;3.00;;;;;;;21.25;38.74;101140.03;5014882;28;20115;-61
2022/04/25 11:13:12;;;;;;;4.13;2.58;;;;;;;21.25;38.96;101140.03;5016525;28;20104;-62
2022/04/25 11:15:42;;;;;;;5.18;3.03;;;;;;;21.25;38.85;101142.69;5016714;28;20084;-62
2022/04/25 11:18:33;;;;;;;5.00;3.08;;;;;;;21.29;38.91;101143.25;5013331;28;20356;-63
2022/04/25 11:21:05;;;;;;;4.50;2.58;;;;;;;21.33;38.78;101144.66;5014422;28;20041;-64
2022/04/25 11:23:32;;;;;;;5.28;3.05;;;;;;;21.36;38.75;101147.88;5014671;28;20034;-62
2022/04/25 11:26:04;;;;;;;4.47;2.83;;;;;;;21.37;38.82;101148.72;5013643;28;20025;-63
2022/04/25 11:28:30;;;;;;;5.15;3.00;;;;;;;21.37;38.87;101149.53;5014436;28;20036;-62
2022/04/25 11:31:13;;;;;;;5.72;2.92;;;;;;;21.40;38.97;101151.09;5014110;28;20033;-62
2022/04/25 11:33:42;;;;;;;5.88;2.90;;;;;;;21.43;38.72;101158.75;5014221;28;20109;-66
2022/04/25 11:36:11;;;;;;;4.25;2.63;;;;;;;21.45;38.59;101158.63;5014773;28;20041;-63
2022/04/25 11:39:50;;;;;;;5.57;2.80;;;;;;;21.45;38.77;101166.59;5014528;28;20037;-66
2022/04/25 11:41:35;;;;;;;5.00;3.00;;;;;;;21.40;38.56;101163.50;5014221;28;20430;-66
2022/04/25 11:44:07;;;;;;;4.88;3.03;;;;;;;21.38;38.70;101168.94;5014201;28;20026;-62
2022/04/25 11:46:34;;;;;;;4.43;2.60;;;;;;;21.41;38.61;101160.69;5014459;28;20054;-63
2022/04/25 11:48:59;;;;;;;4.35;2.58;;;;;;;21.43;38.58;101169.38;5020594;28;20030;-64
2022/04/25 11:51:29;;;;;;;4.13;2.53;;;;;;;21.45;38.60;101163.94;5015014;28;20026;-65
2022/04/25 11:54:00;;;;;;;4.47;2.70;;;;;;;21.45;38.46;101171.88;5013858;28;20025;-64
2022/04/25 11:56:27;;;;;;;4.88;2.67;;;;;;;21.42;38.58;101167.69;5014684;28;20022;-64
2022/04/25 11:58:53;;;;;;;6.43;2.80;;;;;;;21.41;38.72;101167.81;5013754;28;20430;-62
2022/04/25 12:01:47;;;;;;;5.35;2.70;;;;;;;21.41;38.70;101166.00;5013205;28;20050;-60
2022/04/25 12:04:21;;;;;;;3.73;2.23;;;;;;;21.41;38.59;101166.00;5013270;28;20037;-63